DLH2PP EDDF-LSZH
Flight info
| Callsign | DLH2PP |
|---|---|
| Flight time | 0h 33m |
| Altitude | 23000 |
| Route | ANEKI2L/18 ANEKI Y163 NEKLO Y171 INKAM T725 LAMGO T721 RILAX |
| Aircraft | A321/M-SDE2E3FGIJ1LORWXYZ/HB1 |
Departure
| Time | 2026-05-05 17:25 |
|---|---|
| Airport | Frankfurt Main Airport (EDDF) |
Arrival
| Time | 2026-05-05 17:58 |
|---|---|
| Airport | Zürich Airport (LSZH) |
| Time | Latitude | Longitude | Altitude | Speed | Heading |
|---|---|---|---|---|---|
| 2026-05-05 16:47 | 50.04579 | 8.56625 | 360 ft | 0 kts | 114° |
| 2026-05-05 17:06 | 50.04586 | 8.56602 | 364 ft | 4 kts | 115° |
| 2026-05-05 17:06 | 50.04597 | 8.56564 | 360 ft | 4 kts | 117° |
| 2026-05-05 17:06 | 50.04611 | 8.56528 | 363 ft | 4 kts | 127° |
| 2026-05-05 17:07 | 50.04629 | 8.56502 | 364 ft | 4 kts | 172° |
| 2026-05-05 17:07 | 50.04632 | 8.56497 | 362 ft | 4 kts | 204° |
| 2026-05-05 17:07 | 50.04607 | 8.56480 | 361 ft | 4 kts | 204° |
| 2026-05-05 17:07 | 50.04583 | 8.56463 | 356 ft | 2 kts | 205° |
| 2026-05-05 17:08 | 50.04581 | 8.56461 | 356 ft | 0 kts | 205° |
| 2026-05-05 17:11 | 50.04554 | 8.56442 | 360 ft | 8 kts | 205° |
| 2026-05-05 17:12 | 50.04506 | 8.56338 | 361 ft | 16 kts | 248° |
| 2026-05-05 17:12 | 50.04459 | 8.56142 | 357 ft | 20 kts | 250° |
| 2026-05-05 17:12 | 50.04377 | 8.56041 | 362 ft | 16 kts | 172° |
| 2026-05-05 17:12 | 50.04302 | 8.56071 | 359 ft | 10 kts | 180° |
| 2026-05-05 17:13 | 50.04254 | 8.55998 | 359 ft | 11 kts | 247° |
| 2026-05-05 17:13 | 50.04225 | 8.55874 | 358 ft | 14 kts | 249° |
| 2026-05-05 17:13 | 50.04187 | 8.55718 | 358 ft | 17 kts | 249° |
| 2026-05-05 17:13 | 50.04144 | 8.55538 | 356 ft | 19 kts | 250° |
| 2026-05-05 17:14 | 50.04098 | 8.55343 | 353 ft | 19 kts | 250° |
| 2026-05-05 17:14 | 50.04051 | 8.55147 | 360 ft | 20 kts | 249° |
| 2026-05-05 17:14 | 50.04000 | 8.54937 | 358 ft | 22 kts | 250° |
| 2026-05-05 17:14 | 50.03945 | 8.54706 | 352 ft | 24 kts | 250° |
| 2026-05-05 17:15 | 50.03885 | 8.54453 | 354 ft | 26 kts | 249° |
| 2026-05-05 17:15 | 50.03794 | 8.54204 | 347 ft | 27 kts | 244° |
| 2026-05-05 17:15 | 50.03725 | 8.53925 | 349 ft | 28 kts | 250° |
| 2026-05-05 17:15 | 50.03659 | 8.53636 | 347 ft | 27 kts | 250° |
| 2026-05-05 17:16 | 50.03592 | 8.53363 | 336 ft | 27 kts | 249° |
| 2026-05-05 17:16 | 50.03526 | 8.53096 | 335 ft | 22 kts | 248° |
| 2026-05-05 17:16 | 50.03476 | 8.52890 | 334 ft | 17 kts | 247° |
| 2026-05-05 17:16 | 50.03455 | 8.52813 | 333 ft | 0 kts | 247° |
| 2026-05-05 17:20 | 50.03451 | 8.52801 | 335 ft | 4 kts | 248° |
| 2026-05-05 17:20 | 50.03435 | 8.52740 | 333 ft | 7 kts | 248° |
| 2026-05-05 17:21 | 50.03433 | 8.52732 | 331 ft | 0 kts | 248° |
| 2026-05-05 17:22 | 50.03408 | 8.52633 | 334 ft | 9 kts | 243° |
| 2026-05-05 17:22 | 50.03359 | 8.52596 | 334 ft | 0 kts | 181° |
| 2026-05-05 17:24 | 50.03357 | 8.52596 | 336 ft | 2 kts | 181° |
| 2026-05-05 17:24 | 50.03231 | 8.52595 | 336 ft | 52 kts | 180° |
| 2026-05-05 17:24 | 50.02588 | 8.52601 | 335 ft | 129 kts | 180° |
| 2026-05-05 17:25 | 50.01521 | 8.52601 | 560 ft | 165 kts | 181° |
| 2026-05-05 17:25 | 50.00758 | 8.52580 | 1157 ft | 162 kts | 184° |
| 2026-05-05 17:25 | 49.99171 | 8.52607 | 1887 ft | 184 kts | 180° |
| 2026-05-05 17:25 | 49.97834 | 8.52703 | 2180 ft | 205 kts | 179° |
| 2026-05-05 17:26 | 49.96332 | 8.52827 | 2505 ft | 224 kts | 179° |
| 2026-05-05 17:26 | 49.94761 | 8.52960 | 3210 ft | 227 kts | 179° |
| 2026-05-05 17:26 | 49.93165 | 8.53090 | 3887 ft | 230 kts | 179° |
| 2026-05-05 17:26 | 49.91564 | 8.53216 | 4739 ft | 230 kts | 179° |
| 2026-05-05 17:27 | 49.89960 | 8.53333 | 5648 ft | 231 kts | 179° |
| 2026-05-05 17:27 | 49.88345 | 8.53446 | 6513 ft | 233 kts | 179° |
| 2026-05-05 17:27 | 49.86716 | 8.53559 | 7335 ft | 235 kts | 179° |
| 2026-05-05 17:27 | 49.85066 | 8.53674 | 8154 ft | 238 kts | 179° |
| 2026-05-05 17:28 | 49.83401 | 8.53786 | 8975 ft | 241 kts | 179° |
| 2026-05-05 17:28 | 49.81709 | 8.53903 | 9798 ft | 244 kts | 179° |
| 2026-05-05 17:28 | 49.80026 | 8.54018 | 10536 ft | 247 kts | 179° |
| 2026-05-05 17:28 | 49.78300 | 8.54126 | 11260 ft | 249 kts | 181° |
| 2026-05-05 17:29 | 49.76518 | 8.53946 | 11693 ft | 267 kts | 186° |
| 2026-05-05 17:29 | 49.74584 | 8.53685 | 11930 ft | 290 kts | 186° |
| 2026-05-05 17:29 | 49.72485 | 8.53394 | 12128 ft | 314 kts | 186° |
| 2026-05-05 17:29 | 49.70221 | 8.53120 | 12271 ft | 337 kts | 184° |
| 2026-05-05 17:30 | 49.67831 | 8.52989 | 12405 ft | 358 kts | 182° |
| 2026-05-05 17:30 | 49.65297 | 8.52959 | 12841 ft | 368 kts | 181° |
| 2026-05-05 17:30 | 49.62716 | 8.52977 | 13472 ft | 372 kts | 181° |
| 2026-05-05 17:30 | 49.60113 | 8.53002 | 14066 ft | 375 kts | 181° |
| 2026-05-05 17:31 | 49.57487 | 8.53020 | 14664 ft | 378 kts | 181° |
| 2026-05-05 17:31 | 49.54831 | 8.53023 | 15256 ft | 381 kts | 181° |
| 2026-05-05 17:31 | 49.52158 | 8.53008 | 15843 ft | 384 kts | 181° |
| 2026-05-05 17:31 | 49.49509 | 8.52979 | 16400 ft | 387 kts | 181° |
| 2026-05-05 17:32 | 49.46804 | 8.52943 | 16965 ft | 390 kts | 181° |
| 2026-05-05 17:32 | 49.44075 | 8.52905 | 17525 ft | 393 kts | 181° |
| 2026-05-05 17:32 | 49.41326 | 8.52871 | 18057 ft | 396 kts | 181° |
| 2026-05-05 17:32 | 49.38554 | 8.52843 | 18529 ft | 400 kts | 181° |
| 2026-05-05 17:33 | 49.35760 | 8.52814 | 19012 ft | 403 kts | 181° |
| 2026-05-05 17:33 | 49.32946 | 8.52783 | 19483 ft | 405 kts | 181° |
| 2026-05-05 17:33 | 49.30116 | 8.52752 | 19992 ft | 408 kts | 181° |
| 2026-05-05 17:33 | 49.27263 | 8.52722 | 20476 ft | 411 kts | 181° |
| 2026-05-05 17:34 | 49.24393 | 8.52692 | 20946 ft | 413 kts | 181° |
| 2026-05-05 17:34 | 49.21503 | 8.52661 | 21404 ft | 416 kts | 181° |
| 2026-05-05 17:34 | 49.18597 | 8.52633 | 21862 ft | 419 kts | 181° |
| 2026-05-05 17:34 | 49.15669 | 8.52605 | 22304 ft | 421 kts | 181° |
| 2026-05-05 17:35 | 49.12762 | 8.52576 | 22712 ft | 424 kts | 181° |
| 2026-05-05 17:35 | 49.09802 | 8.52545 | 22822 ft | 429 kts | 181° |
| 2026-05-05 17:35 | 49.06789 | 8.52509 | 22833 ft | 434 kts | 181° |
| 2026-05-05 17:35 | 49.03762 | 8.52474 | 22832 ft | 436 kts | 181° |
| 2026-05-05 17:36 | 49.00725 | 8.52442 | 22831 ft | 436 kts | 181° |
| 2026-05-05 17:36 | 48.97688 | 8.52411 | 22830 ft | 436 kts | 181° |
| 2026-05-05 17:36 | 48.94641 | 8.52383 | 22829 ft | 436 kts | 181° |
| 2026-05-05 17:36 | 48.92633 | 8.52365 | 22832 ft | 436 kts | 181° |
| 2026-05-05 17:37 | 48.89591 | 8.52336 | 22829 ft | 436 kts | 181° |
| 2026-05-05 17:37 | 48.86560 | 8.52302 | 22833 ft | 436 kts | 181° |
| 2026-05-05 17:37 | 48.83523 | 8.52266 | 22832 ft | 436 kts | 181° |
| 2026-05-05 17:37 | 48.79506 | 8.52222 | 22832 ft | 436 kts | 181° |
| 2026-05-05 17:38 | 48.77453 | 8.52202 | 22834 ft | 436 kts | 181° |
| 2026-05-05 17:38 | 48.74420 | 8.52171 | 22846 ft | 435 kts | 181° |
| 2026-05-05 17:38 | 48.71397 | 8.52139 | 22848 ft | 435 kts | 181° |
| 2026-05-05 17:38 | 48.68373 | 8.52108 | 22847 ft | 434 kts | 181° |
| 2026-05-05 17:39 | 48.65389 | 8.52079 | 22850 ft | 434 kts | 181° |
| 2026-05-05 17:39 | 48.62365 | 8.52053 | 22847 ft | 433 kts | 181° |
| 2026-05-05 17:39 | 48.59337 | 8.52028 | 22845 ft | 433 kts | 181° |
| 2026-05-05 17:39 | 48.56318 | 8.52001 | 22843 ft | 433 kts | 181° |
| 2026-05-05 17:40 | 48.53304 | 8.51968 | 22840 ft | 433 kts | 181° |
| 2026-05-05 17:40 | 48.50293 | 8.51928 | 22838 ft | 433 kts | 181° |
| 2026-05-05 17:40 | 48.47281 | 8.51890 | 22836 ft | 433 kts | 181° |
| 2026-05-05 17:40 | 48.44301 | 8.51857 | 22835 ft | 433 kts | 181° |
| 2026-05-05 17:41 | 48.41272 | 8.51829 | 22838 ft | 433 kts | 181° |
| 2026-05-05 17:41 | 48.38266 | 8.51802 | 22835 ft | 433 kts | 181° |
| 2026-05-05 17:41 | 48.35201 | 8.51774 | 22592 ft | 446 kts | 181° |
| 2026-05-05 17:41 | 48.32083 | 8.51747 | 22327 ft | 449 kts | 181° |
| 2026-05-05 17:42 | 48.28957 | 8.51721 | 22058 ft | 448 kts | 181° |
| 2026-05-05 17:42 | 48.25846 | 8.51693 | 21792 ft | 446 kts | 181° |
| 2026-05-05 17:42 | 48.22742 | 8.51659 | 21532 ft | 445 kts | 181° |
| 2026-05-05 17:42 | 48.19648 | 8.51626 | 21270 ft | 444 kts | 181° |
| 2026-05-05 17:43 | 48.16563 | 8.51595 | 21014 ft | 442 kts | 181° |
| 2026-05-05 17:43 | 48.13481 | 8.51563 | 20759 ft | 441 kts | 181° |
| 2026-05-05 17:43 | 48.10423 | 8.51532 | 20497 ft | 438 kts | 181° |
| 2026-05-05 17:43 | 48.07378 | 8.51501 | 20252 ft | 436 kts | 181° |
| 2026-05-05 17:44 | 48.04375 | 8.51472 | 20014 ft | 435 kts | 181° |
| 2026-05-05 17:44 | 48.01353 | 8.51440 | 19760 ft | 434 kts | 182° |
| 2026-05-05 17:44 | 47.98330 | 8.51410 | 19505 ft | 433 kts | 182° |
| 2026-05-05 17:44 | 47.95319 | 8.51430 | 19261 ft | 433 kts | 179° |
| 2026-05-05 17:45 | 47.92328 | 8.51970 | 19023 ft | 434 kts | 171° |
| 2026-05-05 17:45 | 47.89372 | 8.52904 | 18783 ft | 433 kts | 170° |
| 2026-05-05 17:45 | 47.86422 | 8.53838 | 18546 ft | 431 kts | 170° |
| 2026-05-05 17:45 | 47.83526 | 8.54752 | 18309 ft | 430 kts | 171° |
| 2026-05-05 17:46 | 47.80597 | 8.55670 | 18075 ft | 429 kts | 171° |
| 2026-05-05 17:46 | 47.77678 | 8.56584 | 17756 ft | 426 kts | 171° |
| 2026-05-05 17:46 | 47.74789 | 8.57486 | 16864 ft | 420 kts | 171° |
| 2026-05-05 17:46 | 47.71956 | 8.58438 | 16004 ft | 414 kts | 167° |
| 2026-05-05 17:47 | 47.69279 | 8.60014 | 15169 ft | 413 kts | 156° |
| 2026-05-05 17:47 | 47.66889 | 8.62274 | 14362 ft | 412 kts | 145° |
| 2026-05-05 17:47 | 47.64808 | 8.65190 | 13579 ft | 412 kts | 134° |
| 2026-05-05 17:47 | 47.63010 | 8.68479 | 12797 ft | 406 kts | 132° |
| 2026-05-05 17:48 | 47.61252 | 8.71714 | 12065 ft | 399 kts | 133° |
| 2026-05-05 17:48 | 47.59514 | 8.74891 | 11371 ft | 392 kts | 133° |
| 2026-05-05 17:48 | 47.57831 | 8.77964 | 11111 ft | 374 kts | 132° |
| 2026-05-05 17:48 | 47.56459 | 8.81129 | 10971 ft | 358 kts | 120° |
| 2026-05-05 17:49 | 47.55567 | 8.84487 | 10849 ft | 342 kts | 108° |
| 2026-05-05 17:49 | 47.55133 | 8.87879 | 10717 ft | 328 kts | 98° |
| 2026-05-05 17:49 | 47.54898 | 8.91164 | 10557 ft | 316 kts | 98° |
| 2026-05-05 17:49 | 47.54667 | 8.94327 | 10254 ft | 310 kts | 99° |
| 2026-05-05 17:50 | 47.54433 | 8.97484 | 9921 ft | 306 kts | 99° |
| 2026-05-05 17:50 | 47.54114 | 9.00572 | 9511 ft | 300 kts | 111° |
| 2026-05-05 17:50 | 47.53143 | 9.03220 | 9107 ft | 289 kts | 135° |
| 2026-05-05 17:50 | 47.51602 | 9.04981 | 8847 ft | 273 kts | 159° |
| 2026-05-05 17:51 | 47.49850 | 9.05718 | 8710 ft | 254 kts | 179° |
| 2026-05-05 17:51 | 47.48130 | 9.05605 | 8504 ft | 243 kts | 190° |
| 2026-05-05 17:51 | 47.46456 | 9.05334 | 8198 ft | 241 kts | 190° |
| 2026-05-05 17:51 | 47.44802 | 9.05013 | 7865 ft | 238 kts | 198° |
| 2026-05-05 17:52 | 47.43385 | 9.03853 | 7470 ft | 234 kts | 227° |
| 2026-05-05 17:52 | 47.42585 | 9.01787 | 7072 ft | 235 kts | 256° |
| 2026-05-05 17:52 | 47.42553 | 8.99386 | 6709 ft | 236 kts | 275° |
| 2026-05-05 17:52 | 47.42736 | 8.96993 | 6347 ft | 237 kts | 275° |
| 2026-05-05 17:53 | 47.42919 | 8.94577 | 5991 ft | 236 kts | 275° |
| 2026-05-05 17:53 | 47.43099 | 8.92173 | 5639 ft | 235 kts | 275° |
| 2026-05-05 17:53 | 47.43276 | 8.89779 | 5282 ft | 234 kts | 275° |
| 2026-05-05 17:53 | 47.43453 | 8.87403 | 5035 ft | 230 kts | 275° |
| 2026-05-05 17:54 | 47.43628 | 8.85026 | 4819 ft | 233 kts | 275° |
| 2026-05-05 17:54 | 47.43803 | 8.82654 | 4475 ft | 232 kts | 275° |
| 2026-05-05 17:54 | 47.43977 | 8.80292 | 4106 ft | 231 kts | 275° |
| 2026-05-05 17:54 | 47.44148 | 8.77953 | 4001 ft | 224 kts | 275° |
| 2026-05-05 17:55 | 47.44310 | 8.75749 | 4007 ft | 206 kts | 275° |
| 2026-05-05 17:55 | 47.44459 | 8.73715 | 3870 ft | 194 kts | 274° |
| 2026-05-05 17:55 | 47.44599 | 8.71788 | 3620 ft | 189 kts | 274° |
| 2026-05-05 17:55 | 47.44739 | 8.69853 | 3354 ft | 188 kts | 274° |
| 2026-05-05 17:56 | 47.44872 | 8.68024 | 3106 ft | 169 kts | 274° |
| 2026-05-05 17:56 | 47.44991 | 8.66384 | 2857 ft | 153 kts | 274° |
| 2026-05-05 17:56 | 47.45101 | 8.64856 | 2628 ft | 147 kts | 274° |
| 2026-05-05 17:56 | 47.45206 | 8.63383 | 2412 ft | 140 kts | 274° |
| 2026-05-05 17:57 | 47.45308 | 8.61964 | 2197 ft | 137 kts | 275° |
| 2026-05-05 17:57 | 47.45408 | 8.60568 | 1985 ft | 137 kts | 274° |
| 2026-05-05 17:57 | 47.45503 | 8.59170 | 1748 ft | 136 kts | 274° |
| 2026-05-05 17:57 | 47.45609 | 8.57766 | 1577 ft | 138 kts | 274° |
| 2026-05-05 17:58 | 47.45710 | 8.56355 | 1418 ft | 133 kts | 275° |
| 2026-05-05 17:58 | 47.45792 | 8.55183 | 1405 ft | 90 kts | 275° |
| 2026-05-05 17:58 | 47.45828 | 8.54518 | 1391 ft | 48 kts | 269° |
| 2026-05-05 17:58 | 47.45744 | 8.54267 | 1386 ft | 22 kts | 231° |
| 2026-05-05 17:59 | 47.45648 | 8.54233 | 1382 ft | 8 kts | 147° |
| 2026-05-05 17:59 | 47.45614 | 8.54287 | 1384 ft | 7 kts | 120° |
| 2026-05-05 17:59 | 47.45593 | 8.54360 | 1387 ft | 8 kts | 111° |
| 2026-05-05 17:59 | 47.45574 | 8.54449 | 1385 ft | 10 kts | 107° |
| 2026-05-05 18:00 | 47.45552 | 8.54552 | 1388 ft | 11 kts | 107° |
| 2026-05-05 18:00 | 47.45528 | 8.54667 | 1400 ft | 13 kts | 108° |
| 2026-05-05 18:00 | 47.45498 | 8.54799 | 1400 ft | 14 kts | 109° |
| 2026-05-05 18:00 | 47.45493 | 8.54823 | 1397 ft | 0 kts | 109° |
| 2026-05-05 18:02 | 47.45481 | 8.54874 | 1394 ft | 11 kts | 109° |
| 2026-05-05 18:02 | 47.45446 | 8.55025 | 1395 ft | 19 kts | 110° |
| 2026-05-05 18:02 | 47.45399 | 8.55220 | 1403 ft | 20 kts | 112° |
| 2026-05-05 18:03 | 47.45408 | 8.55365 | 1402 ft | 15 kts | 30° |
| 2026-05-05 18:03 | 47.45501 | 8.55442 | 1409 ft | 15 kts | 37° |
| 2026-05-05 18:03 | 47.45520 | 8.55581 | 1407 ft | 14 kts | 92° |
| 2026-05-05 18:03 | 47.45508 | 8.55733 | 1411 ft | 15 kts | 96° |
| 2026-05-05 18:04 | 47.45501 | 8.55841 | 1409 ft | 7 kts | 95° |
| 2026-05-05 18:04 | 47.45475 | 8.55877 | 1409 ft | 7 kts | 171° |
| 2026-05-05 18:04 | 47.45434 | 8.55874 | 1407 ft | 2 kts | 185° |
| 2026-05-05 18:04 | 47.45423 | 8.55873 | 1410 ft | 1 kts | 185° |
| 2026-05-05 18:05 | 47.45422 | 8.55873 | 1411 ft | 0 kts | 185° |